Time,TemperatureF,DewpointF,PressureIn,WindDirection,WindDirectionDegrees,WindSpeedMPH,WindSpeedGustMPH,Humidity,HourlyPrecipIn,Conditions,Clouds,dailyrainin,SoftwareType,DateUTC
2013-04-28 00:01:00,54.5,42.6,29.68,SE,135,0.9,2.2,64,0.00,,,0.00,WUHU216HW,2013-04-28 04:01:00,
2013-04-28 00:06:00,54.5,42.6,29.68,SSE,158,1.8,1.8,64,0.00,,,0.00,WUHU216HW,2013-04-28 04:06:00,
2013-04-28 00:11:00,54.4,42.4,29.68,SE,135,1.1,3.1,64,0.00,,,0.00,WUHU216HW,2013-04-28 04:11:00,
2013-04-28 00:16:00,54.4,42.9,29.68,ENE,68,0.0,3.1,65,0.00,,,0.00,WUHU216HW,2013-04-28 04:16:00,
2013-04-28 00:21:00,54.5,43.0,29.68,SE,135,1.1,3.4,65,0.00,,,0.00,WUHU216HW,2013-04-28 04:21:00,
2013-04-28 00:26:00,54.7,43.1,29.68,SSE,158,0.0,3.4,65,0.00,,,0.00,WUHU216HW,2013-04-28 04:26:00,
2013-04-28 00:31:00,54.5,42.6,29.68,SW,225,0.4,1.8,64,0.00,,,0.00,WUHU216HW,2013-04-28 04:31:00,
2013-04-28 00:36:00,54.5,43.0,29.68,SW,225,1.1,1.8,65,0.00,,,0.00,WUHU216HW,2013-04-28 04:36:00,
2013-04-28 00:41:00,54.5,43.0,29.68,WSW,248,2.2,3.1,65,0.00,,,0.00,WUHU216HW,2013-04-28 04:41:00,
2013-04-28 00:46:00,54.4,42.9,29.68,SW,225,3.4,4.3,65,0.00,,,0.00,WUHU216HW,2013-04-28 04:46:00,
2013-04-28 00:51:00,54.4,42.9,29.68,SW,225,1.8,4.3,65,0.00,,,0.00,WUHU216HW,2013-04-28 04:51:00,
2013-04-28 00:56:00,54.0,42.5,29.68,SW,225,0.2,3.4,65,0.00,,,0.00,WUHU216HW,2013-04-28 04:56:00,
2013-04-28 01:01:00,53.6,42.1,29.68,South,180,0.2,2.0,65,0.00,,,0.00,WUHU216HW,2013-04-28 05:01:00,
2013-04-28 01:06:00,53.6,42.1,29.68,SSW,203,1.8,1.8,65,0.00,,,0.00,WUHU216HW,2013-04-28 05:06:00,
2013-04-28 01:11:00,53.5,41.9,29.68,SW,225,0.0,1.8,65,0.00,,,0.00,WUHU216HW,2013-04-28 05:11:00,
2013-04-28 01:16:00,53.5,42.4,29.68,WNW,293,0.0,1.8,66,0.00,,,0.00,WUHU216HW,2013-04-28 05:16:00,
2013-04-28 01:21:00,53.5,42.8,29.67,NW,315,0.0,0.0,67,0.00,,,0.00,WUHU216HW,2013-04-28 05:21:00,
2013-04-28 01:26:00,53.3,42.6,29.67,NW,315,0.0,0.0,67,0.00,,,0.00,WUHU216HW,2013-04-28 05:26:00,
2013-04-28 01:31:00,53.1,42.4,29.67,NW,315,0.0,0.0,67,0.00,,,0.00,WUHU216HW,2013-04-28 05:31:00,
2013-04-28 01:36:00,52.9,42.2,29.68,West,270,0.0,0.0,67,0.00,,,0.00,WUHU216HW,2013-04-28 05:36:00,
2013-04-28 01:41:00,52.9,42.7,29.68,WNW,293,0.0,0.0,68,0.00,,,0.00,WUHU216HW,2013-04-28 05:41:00,
2013-04-28 01:46:00,52.6,42.3,29.67,SE,135,0.0,0.0,68,0.00,,,0.00,WUHU216HW,2013-04-28 05:46:00,
2013-04-28 01:51:00,52.2,41.9,29.67,SW,225,0.0,0.0,68,0.00,,,0.00,WUHU216HW,2013-04-28 05:51:00,
2013-04-28 01:56:00,52.0,42.2,29.67,NNE,23,0.0,0.0,69,0.00,,,0.00,WUHU216HW,2013-04-28 05:56:00,
2013-04-28 02:01:00,51.8,41.7,29.67,WNW,293,0.0,0.0,68,0.00,,,0.00,WUHU216HW,2013-04-28 06:01:00,
2013-04-28 02:06:00,51.5,41.7,29.67,WSW,248,0.0,0.0,69,0.00,,,0.00,WUHU216HW,2013-04-28 06:06:00,
2013-04-28 02:11:00,51.3,41.5,29.67,West,270,0.0,0.0,69,0.00,,,0.00,WUHU216HW,2013-04-28 06:11:00,
2013-04-28 02:16:00,51.1,41.8,29.66,WSW,248,0.0,0.0,70,0.00,,,0.00,WUHU216HW,2013-04-28 06:16:00,
2013-04-28 02:21:00,51.1,41.8,29.66,WSW,248,0.0,0.0,70,0.00,,,0.00,WUHU216HW,2013-04-28 06:21:00,
2013-04-28 02:26:00,51.5,42.5,29.66,WSW,248,0.0,0.0,71,0.00,,,0.00,WUHU216HW,2013-04-28 06:26:00,
2013-04-28 02:31:00,51.5,42.1,29.66,WSW,248,0.0,0.0,70,0.00,,,0.00,WUHU216HW,2013-04-28 06:31:00,
2013-04-28 02:36:00,51.5,42.1,29.66,WSW,248,0.0,0.0,70,0.00,,,0.00,WUHU216HW,2013-04-28 06:36:00,
2013-04-28 02:41:00,51.5,42.1,29.66,West,270,0.0,0.0,70,0.00,,,0.00,WUHU216HW,2013-04-28 06:41:00,
2013-04-28 02:46:00,51.5,42.5,29.66,WSW,248,0.0,0.0,71,0.00,,,0.00,WUHU216HW,2013-04-28 06:46:00,
2013-04-28 02:51:00,51.5,42.5,29.65,WSW,248,0.0,0.0,71,0.00,,,0.00,WUHU216HW,2013-04-28 06:51:00,
2013-04-28 02:56:00,51.5,42.5,29.65,South,180,0.0,0.0,71,0.00,,,0.00,WUHU216HW,2013-04-28 06:56:00,
2013-04-28 03:01:00,51.5,42.5,29.64,SW,225,0.0,0.0,71,0.00,,,0.00,WUHU216HW,2013-04-28 07:01:00,
2013-04-28 03:06:00,51.5,42.5,29.64,NW,315,0.2,0.2,71,0.00,,,0.00,WUHU216HW,2013-04-28 07:06:00,
2013-04-28 03:11:00,51.3,42.3,29.64,WNW,293,0.0,0.2,71,0.00,,,0.00,WUHU216HW,2013-04-28 07:11:00,
2013-04-28 03:16:00,51.1,42.5,29.64,NW,315,0.0,0.2,72,0.00,,,0.00,WUHU216HW,2013-04-28 07:16:00,
2013-04-28 03:21:00,50.9,42.3,29.64,WNW,293,0.0,0.0,72,0.00,,,0.00,WUHU216HW,2013-04-28 07:21:00,
2013-04-28 03:26:00,50.8,42.1,29.63,WSW,248,0.0,0.0,72,0.00,,,0.00,WUHU216HW,2013-04-28 07:26:00,
2013-04-28 03:31:00,50.6,42.0,29.64,WNW,293,0.0,0.0,72,0.00,,,0.00,WUHU216HW,2013-04-28 07:31:00,
2013-04-28 03:36:00,50.2,41.6,29.64,WSW,248,0.0,0.0,72,0.00,,,0.00,WUHU216HW,2013-04-28 07:36:00,
2013-04-28 03:41:00,50.0,41.7,29.63,SW,225,0.0,0.0,73,0.00,,,0.00,WUHU216HW,2013-04-28 07:41:00,
2013-04-28 03:46:00,50.2,41.9,29.63,SSW,203,0.0,0.0,73,0.00,,,0.00,WUHU216HW,2013-04-28 07:46:00,
2013-04-28 03:51:00,50.6,42.2,29.63,SSW,203,0.0,0.0,73,0.00,,,0.00,WUHU216HW,2013-04-28 07:51:00,
2013-04-28 03:56:00,50.8,42.4,29.63,ESE,113,0.0,0.0,73,0.00,,,0.00,WUHU216HW,2013-04-28 07:56:00,
2013-04-28 04:01:00,50.8,42.4,29.63,SE,135,0.0,0.0,73,0.00,,,0.00,WUHU216HW,2013-04-28 08:01:00,
2013-04-28 04:06:00,50.8,42.4,29.63,SE,135,0.0,0.0,73,0.00,,,0.00,WUHU216HW,2013-04-28 08:06:00,
2013-04-28 04:11:00,50.8,42.4,29.64,SW,225,0.0,0.0,73,0.00,,,0.00,WUHU216HW,2013-04-28 08:11:00,
2013-04-28 04:16:00,50.8,42.4,29.63,SSW,203,0.0,0.0,73,0.00,,,0.00,WUHU216HW,2013-04-28 08:16:00,
2013-04-28 04:21:00,50.9,42.6,29.63,WSW,248,0.0,0.0,73,0.00,,,0.00,WUHU216HW,2013-04-28 08:21:00,
2013-04-28 04:26:00,51.1,42.8,29.63,ESE,113,0.0,0.0,73,0.00,,,0.00,WUHU216HW,2013-04-28 08:26:00,
2013-04-28 04:31:00,51.3,42.9,29.64,WSW,248,0.0,0.0,73,0.00,,,0.00,WUHU216HW,2013-04-28 08:31:00,
2013-04-28 04:36:00,51.5,43.1,29.64,ESE,113,0.0,0.0,73,0.00,,,0.00,WUHU216HW,2013-04-28 08:36:00,
2013-04-28 04:41:00,51.5,43.1,29.64,SW,225,0.0,0.0,73,0.00,,,0.00,WUHU216HW,2013-04-28 08:41:00,
2013-04-28 04:46:00,51.5,43.5,29.63,ESE,113,0.0,0.0,74,0.00,,,0.00,WUHU216HW,2013-04-28 08:46:00,
2013-04-28 04:51:00,51.5,43.1,29.63,SSE,158,0.0,0.0,73,0.00,,,0.00,WUHU216HW,2013-04-28 08:51:00,
2013-04-28 04:56:00,51.5,43.1,29.63,SW,225,0.0,0.0,73,0.00,,,0.00,WUHU216HW,2013-04-28 08:56:00,
2013-04-28 05:01:00,51.7,43.3,29.63,SE,135,0.0,0.0,73,0.00,,,0.00,WUHU216HW,2013-04-28 09:01:00,
2013-04-28 05:06:00,51.7,43.3,29.63,ESE,113,0.0,0.0,73,0.00,,,0.00,WUHU216HW,2013-04-28 09:06:00,
2013-04-28 05:11:00,51.5,43.1,29.63,ESE,113,0.0,0.0,73,0.00,,,0.00,WUHU216HW,2013-04-28 09:11:00,
2013-04-28 05:16:00,51.5,43.1,29.63,SSE,158,0.0,0.0,73,0.00,,,0.00,WUHU216HW,2013-04-28 09:16:00,
2013-04-28 05:21:00,51.5,43.1,29.63,NNW,338,0.0,0.0,73,0.00,,,0.00,WUHU216HW,2013-04-28 09:21:00,
2013-04-28 05:26:00,51.7,43.7,29.63,West,270,0.7,1.3,74,0.00,,,0.00,WUHU216HW,2013-04-28 09:26:00,
2013-04-28 05:31:00,51.7,43.3,29.63,West,270,0.0,1.3,73,0.00,,,0.00,WUHU216HW,2013-04-28 09:31:00,
2013-04-28 05:36:00,51.5,43.1,29.63,West,270,3.4,3.4,73,0.00,,,0.00,WUHU216HW,2013-04-28 09:36:00,
2013-04-28 05:41:00,51.7,43.7,29.63,West,270,1.3,3.4,74,0.00,,,0.00,WUHU216HW,2013-04-28 09:41:00,
2013-04-28 05:46:00,51.5,43.8,29.63,SSE,158,0.4,3.4,75,0.00,,,0.00,WUHU216HW,2013-04-28 09:46:00,
2013-04-28 05:51:00,51.5,43.5,29.63,SSW,203,2.7,3.4,74,0.00,,,0.00,WUHU216HW,2013-04-28 09:51:00,
2013-04-28 05:56:00,52.0,44.0,29.63,ESE,113,2.5,5.1,74,0.00,,,0.00,WUHU216HW,2013-04-28 09:56:00,
2013-04-28 06:01:00,52.2,43.8,29.64,SE,135,0.4,5.1,73,0.00,,,0.00,WUHU216HW,2013-04-28 10:01:00,
2013-04-28 06:06:00,52.2,43.8,29.63,ESE,113,1.1,2.9,73,0.00,,,0.00,WUHU216HW,2013-04-28 10:06:00,
2013-04-28 06:11:00,52.4,43.7,29.64,SE,135,0.4,2.7,72,0.00,,,0.00,WUHU216HW,2013-04-28 10:11:00,
2013-04-28 06:16:00,52.4,43.7,29.64,SSE,158,1.1,2.2,72,0.00,,,0.00,WUHU216HW,2013-04-28 10:16:00,
2013-04-28 06:21:00,52.4,43.7,29.63,South,180,3.4,3.8,72,0.00,,,0.00,WUHU216HW,2013-04-28 10:21:00,
2013-04-28 06:26:00,52.6,43.8,29.63,SSE,158,0.4,3.8,72,0.00,,,0.00,WUHU216HW,2013-04-28 10:26:00,
2013-04-28 06:31:00,52.6,43.8,29.64,SW,225,1.8,3.4,72,0.00,,,0.00,WUHU216HW,2013-04-28 10:31:00,
2013-04-28 06:36:00,52.6,43.8,29.64,SSE,158,1.1,1.8,72,0.00,,,0.00,WUHU216HW,2013-04-28 10:36:00,
2013-04-28 06:41:00,52.6,43.8,29.63,South,180,1.6,1.8,72,0.00,,,0.00,WUHU216HW,2013-04-28 10:41:00,
2013-04-28 06:46:00,52.7,44.0,29.64,SW,225,1.8,2.5,72,0.00,,,0.00,WUHU216HW,2013-04-28 10:46:00,
2013-04-28 06:51:00,52.9,44.2,29.64,SSW,203,2.9,2.9,72,0.00,,,0.00,WUHU216HW,2013-04-28 10:51:00,
2013-04-28 06:56:00,52.9,44.2,29.64,SSE,158,2.5,2.9,72,0.00,,,0.00,WUHU216HW,2013-04-28 10:56:00,
2013-04-28 07:01:00,52.9,44.2,29.64,SSW,203,1.8,2.9,72,0.00,,,0.00,WUHU216HW,2013-04-28 11:01:00,
2013-04-28 07:06:00,53.1,44.3,29.64,South,180,1.3,2.5,72,0.00,,,0.00,WUHU216HW,2013-04-28 11:06:00,
2013-04-28 07:11:00,53.1,44.0,29.64,SW,225,0.9,2.0,71,0.00,,,0.00,WUHU216HW,2013-04-28 11:11:00,
2013-04-28 07:16:00,53.3,44.5,29.64,SSE,158,1.6,1.6,72,0.00,,,0.00,WUHU216HW,2013-04-28 11:16:00,
2013-04-28 07:21:00,53.3,44.5,29.64,SW,225,0.9,1.6,72,0.00,,,0.00,WUHU216HW,2013-04-28 11:21:00,
2013-04-28 07:26:00,53.6,44.8,29.64,SSE,158,2.5,2.5,72,0.00,,,0.00,WUHU216HW,2013-04-28 11:26:00,
2013-04-28 07:31:00,54.2,45.4,29.64,SE,135,0.9,2.5,72,0.00,,,0.00,WUHU216HW,2013-04-28 11:31:00,
2013-04-28 07:36:00,54.5,45.7,29.64,SSW,203,2.5,2.5,72,0.00,,,0.00,WUHU216HW,2013-04-28 11:36:00,
2013-04-28 07:41:00,55.1,45.9,29.64,SSW,203,1.1,2.5,71,0.00,,,0.00,WUHU216HW,2013-04-28 11:41:00,
2013-04-28 07:46:00,55.3,46.1,29.64,SW,225,0.9,2.5,71,0.00,,,0.00,WUHU216HW,2013-04-28 11:46:00,
2013-04-28 07:51:00,55.6,46.1,29.64,SSW,203,1.8,1.8,70,0.00,,,0.00,WUHU216HW,2013-04-28 11:51:00,
2013-04-28 07:56:00,55.8,45.8,29.64,SSW,203,1.8,2.0,69,0.00,,,0.00,WUHU216HW,2013-04-28 11:56:00,
2013-04-28 08:01:00,56.0,46.0,29.64,SW,225,1.3,2.0,69,0.00,,,0.00,WUHU216HW,2013-04-28 12:01:00,
2013-04-28 08:06:00,56.2,46.2,29.64,West,270,2.0,2.0,69,0.00,,,0.00,WUHU216HW,2013-04-28 12:06:00,
2013-04-28 08:11:00,56.5,46.4,29.64,WSW,248,1.6,2.0,69,0.00,,,0.00,WUHU216HW,2013-04-28 12:11:00,
2013-04-28 08:16:00,56.7,46.6,29.64,WNW,293,2.7,2.7,69,0.00,,,0.00,WUHU216HW,2013-04-28 12:16:00,
2013-04-28 08:21:00,56.7,47.1,29.64,NW,315,0.2,2.7,70,0.00,,,0.00,WUHU216HW,2013-04-28 12:21:00,
2013-04-28 08:26:00,57.1,47.0,29.64,SSE,158,0.4,2.7,69,0.00,,,0.00,WUHU216HW,2013-04-28 12:26:00,
2013-04-28 08:31:00,57.2,47.2,29.64,ESE,113,1.1,2.2,69,0.00,,,0.00,WUHU216HW,2013-04-28 12:31:00,
2013-04-28 08:36:00,57.6,47.5,29.64,South,180,3.4,3.4,69,0.00,,,0.00,WUHU216HW,2013-04-28 12:36:00,
2013-04-28 08:41:00,57.6,47.1,29.64,SE,135,2.5,3.4,68,0.00,,,0.00,WUHU216HW,2013-04-28 12:41:00,
2013-04-28 08:46:00,57.6,47.1,29.64,South,180,2.0,3.4,68,0.00,,,0.00,WUHU216HW,2013-04-28 12:46:00,
2013-04-28 08:51:00,57.6,46.7,29.64,ESE,113,2.5,2.9,67,0.00,,,0.00,WUHU216HW,2013-04-28 12:51:00,
2013-04-28 08:56:00,57.6,46.7,29.63,SE,135,2.2,2.9,67,0.00,,,0.00,WUHU216HW,2013-04-28 12:56:00,
2013-04-28 09:01:00,58.0,47.1,29.64,SE,135,1.3,2.5,67,0.00,,,0.00,WUHU216HW,2013-04-28 13:01:00,
2013-04-28 09:06:00,58.0,47.1,29.64,SW,225,1.8,2.2,67,0.00,,,0.00,WUHU216HW,2013-04-28 13:06:00,
2013-04-28 09:11:00,58.0,47.1,29.64,SW,225,2.0,3.1,67,0.00,,,0.00,WUHU216HW,2013-04-28 13:11:00,
2013-04-28 09:16:00,58.0,47.1,29.64,South,180,2.5,4.3,67,0.00,,,0.00,WUHU216HW,2013-04-28 13:16:00,
2013-04-28 09:21:00,58.0,47.1,29.64,SE,135,2.5,4.3,67,0.00,,,0.00,WUHU216HW,2013-04-28 13:21:00,
2013-04-28 09:26:00,57.4,46.5,29.64,SSE,158,3.6,4.7,67,0.00,,,0.00,WUHU216HW,2013-04-28 13:26:00,
2013-04-28 09:31:00,57.2,45.9,29.65,SW,225,3.4,6.5,66,0.00,,,0.00,WUHU216HW,2013-04-28 13:31:00,
2013-04-28 09:36:00,57.1,46.2,29.64,SW,225,3.1,6.5,67,0.00,,,0.00,WUHU216HW,2013-04-28 13:36:00,
2013-04-28 09:41:00,56.7,45.8,29.65,SW,225,1.1,3.8,67,0.00,,,0.00,WUHU216HW,2013-04-28 13:41:00,
2013-04-28 09:46:00,56.7,46.3,29.65,SSE,158,1.3,4.3,68,0.00,,,0.00,WUHU216HW,2013-04-28 13:46:00,
2013-04-28 09:51:00,56.7,46.6,29.65,SSE,158,1.8,4.3,69,0.00,,,0.00,WUHU216HW,2013-04-28 13:51:00,
2013-04-28 09:56:00,56.7,46.6,29.65,WSW,248,2.0,3.8,69,0.00,,,0.00,WUHU216HW,2013-04-28 13:56:00,
2013-04-28 10:01:00,56.5,46.9,29.65,SSE,158,1.8,2.9,70,0.00,,,0.00,WUHU216HW,2013-04-28 14:01:00,
2013-04-28 10:06:00,56.3,47.1,29.65,SE,135,1.8,3.4,71,0.00,,,0.00,WUHU216HW,2013-04-28 14:06:00,
2013-04-28 10:11:00,56.2,46.9,29.66,South,180,2.0,3.4,71,0.00,,,0.00,WUHU216HW,2013-04-28 14:11:00,
2013-04-28 10:16:00,56.2,47.3,29.66,SSE,158,1.8,2.9,72,0.00,,,0.00,WUHU216HW,2013-04-28 14:16:00,
2013-04-28 10:21:00,55.8,46.9,29.66,SSW,203,2.5,2.9,72,0.00,,,0.00,WUHU216HW,2013-04-28 14:21:00,
2013-04-28 10:26:00,55.8,46.9,29.66,SE,135,3.6,3.6,72,0.00,,,0.00,WUHU216HW,2013-04-28 14:26:00,
2013-04-28 10:31:00,55.6,47.1,29.66,SSE,158,1.1,3.6,73,0.00,,,0.00,WUHU216HW,2013-04-28 14:31:00,
2013-04-28 10:36:00,55.6,47.1,29.66,SSE,158,1.6,3.4,73,0.00,,,0.00,WUHU216HW,2013-04-28 14:36:00,
2013-04-28 10:41:00,55.4,46.9,29.66,SE,135,2.5,3.4,73,0.00,,,0.00,WUHU216HW,2013-04-28 14:41:00,
2013-04-28 10:46:00,55.3,47.1,29.66,South,180,2.2,3.4,74,0.00,,,0.00,WUHU216HW,2013-04-28 14:46:00,
2013-04-28 10:51:00,55.1,46.9,29.66,SSE,158,2.5,3.1,74,0.00,,,0.00,WUHU216HW,2013-04-28 14:51:00,
2013-04-28 10:56:00,55.1,47.6,29.66,SSE,158,0.7,2.5,76,0.00,,,0.00,WUHU216HW,2013-04-28 14:56:00,
2013-04-28 11:01:00,55.1,47.6,29.66,SW,225,0.4,2.5,76,0.00,,,0.00,WUHU216HW,2013-04-28 15:01:00,
2013-04-28 11:06:00,55.1,48.0,29.66,SSW,203,1.1,1.3,77,0.00,,,0.00,WUHU216HW,2013-04-28 15:06:00,
2013-04-28 11:11:00,55.1,48.3,29.66,SSW,203,0.7,1.8,78,0.00,,,0.00,WUHU216HW,2013-04-28 15:11:00,
2013-04-28 11:16:00,55.4,49.0,29.66,SE,135,1.3,1.8,79,0.00,,,0.00,WUHU216HW,2013-04-28 15:16:00,
2013-04-28 11:21:00,55.8,49.3,29.66,SE,135,0.2,2.0,79,0.01,,,0.01,WUHU216HW,2013-04-28 15:21:00,
2013-04-28 11:26:00,56.0,49.5,29.66,ENE,68,1.8,2.0,79,0.01,,,0.01,WUHU216HW,2013-04-28 15:26:00,
2013-04-28 11:31:00,56.0,49.9,29.66,South,180,2.2,2.2,80,0.01,,,0.01,WUHU216HW,2013-04-28 15:31:00,
2013-04-28 11:36:00,56.0,49.5,29.66,ESE,113,0.9,3.1,79,0.01,,,0.01,WUHU216HW,2013-04-28 15:36:00,
2013-04-28 11:41:00,56.0,49.9,29.66,SSE,158,3.4,3.4,80,0.01,,,0.01,WUHU216HW,2013-04-28 15:41:00,
2013-04-28 11:46:00,55.8,49.7,29.66,SE,135,2.2,4.3,80,0.01,,,0.01,WUHU216HW,2013-04-28 15:46:00,
2013-04-28 11:51:00,55.8,50.1,29.66,SSE,158,1.8,4.3,81,0.01,,,0.01,WUHU216HW,2013-04-28 15:51:00,
2013-04-28 11:56:00,55.8,50.1,29.66,SW,225,2.9,2.9,81,0.01,,,0.01,WUHU216HW,2013-04-28 15:56:00,
2013-04-28 12:01:00,55.8,50.1,29.66,SE,135,2.0,4.7,81,0.02,,,0.02,WUHU216HW,2013-04-28 16:01:00,
2013-04-28 12:06:00,55.8,50.1,29.66,SSE,158,1.8,4.7,81,0.02,,,0.02,WUHU216HW,2013-04-28 16:06:00,
2013-04-28 12:11:00,55.8,50.1,29.66,South,180,2.2,3.1,81,0.02,,,0.02,WUHU216HW,2013-04-28 16:11:00,
2013-04-28 12:16:00,56.0,50.5,29.66,SE,135,0.9,3.6,82,0.01,,,0.02,WUHU216HW,2013-04-28 16:16:00,
2013-04-28 12:21:00,56.0,50.5,29.66,SSE,158,2.7,4.0,82,0.02,,,0.03,WUHU216HW,2013-04-28 16:21:00,
2013-04-28 12:26:00,56.2,51.0,29.66,SSE,158,1.8,4.0,83,0.02,,,0.03,WUHU216HW,2013-04-28 16:26:00,
2013-04-28 12:31:00,56.2,51.0,29.66,SSW,203,2.2,3.6,83,0.03,,,0.04,WUHU216HW,2013-04-28 16:31:00,
2013-04-28 12:36:00,56.2,51.3,29.65,SSE,158,2.5,4.9,84,0.03,,,0.04,WUHU216HW,2013-04-28 16:36:00,
2013-04-28 12:41:00,56.0,51.1,29.65,South,180,4.0,5.4,84,0.04,,,0.05,WUHU216HW,2013-04-28 16:41:00,
2013-04-28 12:46:00,55.8,50.9,29.65,SSE,158,5.4,5.4,84,0.04,,,0.05,WUHU216HW,2013-04-28 16:46:00,
2013-04-28 12:51:00,55.8,50.9,29.65,SE,135,2.9,5.4,84,0.04,,,0.05,WUHU216HW,2013-04-28 16:51:00,
2013-04-28 12:56:00,55.8,50.9,29.65,SSE,158,4.0,5.6,84,0.04,,,0.06,WUHU216HW,2013-04-28 16:56:00,
2013-04-28 13:01:00,55.8,50.9,29.65,SE,135,4.0,5.6,84,0.04,,,0.06,WUHU216HW,2013-04-28 17:01:00,
2013-04-28 13:06:00,55.8,51.3,29.64,SE,135,3.1,4.5,85,0.05,,,0.07,WUHU216HW,2013-04-28 17:06:00,
2013-04-28 13:11:00,56.0,51.5,29.65,SSE,158,2.5,6.5,85,0.05,,,0.07,WUHU216HW,2013-04-28 17:11:00,
2013-04-28 13:16:00,55.8,51.3,29.65,South,180,4.5,6.5,85,0.05,,,0.08,WUHU216HW,2013-04-28 17:16:00,
2013-04-28 13:21:00,55.3,50.8,29.64,SSW,203,2.5,5.4,85,0.05,,,0.08,WUHU216HW,2013-04-28 17:21:00,
2013-04-28 13:26:00,55.1,51.0,29.64,SSE,158,3.1,5.4,86,0.06,,,0.09,WUHU216HW,2013-04-28 17:26:00,
2013-04-28 13:31:00,55.1,51.0,29.64,SE,135,4.3,4.3,86,0.05,,,0.09,WUHU216HW,2013-04-28 17:31:00,
2013-04-28 13:36:00,55.3,51.1,29.64,SSW,203,2.5,4.3,86,0.05,,,0.10,WUHU216HW,2013-04-28 17:36:00,
2013-04-28 13:41:00,55.4,51.3,29.64,SSW,203,5.6,5.6,86,0.05,,,0.10,WUHU216HW,2013-04-28 17:41:00,
2013-04-28 13:46:00,55.4,51.3,29.64,South,180,3.4,6.7,86,0.06,,,0.11,WUHU216HW,2013-04-28 17:46:00,
2013-04-28 13:51:00,55.3,51.4,29.64,SE,135,1.8,6.7,87,0.07,,,0.12,WUHU216HW,2013-04-28 17:51:00,
2013-04-28 13:56:00,55.4,51.6,29.64,SE,135,2.0,4.0,87,0.06,,,0.12,WUHU216HW,2013-04-28 17:56:00,
2013-04-28 14:01:00,55.4,51.6,29.64,SSE,158,2.0,2.9,87,0.05,,,0.12,WUHU216HW,2013-04-28 18:01:00,
2013-04-28 14:06:00,55.4,51.6,29.64,SSW,203,1.8,2.5,87,0.05,,,0.12,WUHU216HW,2013-04-28 18:06:00,
2013-04-28 14:11:00,55.3,51.4,29.63,ESE,113,1.3,2.2,87,0.05,,,0.13,WUHU216HW,2013-04-28 18:11:00,
2013-04-28 14:16:00,55.1,51.2,29.63,SSE,158,2.5,2.5,87,0.04,,,0.13,WUHU216HW,2013-04-28 18:16:00,
2013-04-28 14:21:00,54.9,51.0,29.63,SSE,158,1.8,4.5,87,0.04,,,0.13,WUHU216HW,2013-04-28 18:21:00,
2013-04-28 14:26:00,54.7,50.9,29.63,SSW,203,3.4,4.5,87,0.04,,,0.13,WUHU216HW,2013-04-28 18:26:00,
2013-04-28 14:31:00,54.4,50.6,29.63,SW,225,3.4,8.5,87,0.03,,,0.13,WUHU216HW,2013-04-28 18:31:00,
2013-04-28 14:36:00,54.2,50.4,29.63,SSE,158,3.4,8.5,87,0.02,,,0.13,WUHU216HW,2013-04-28 18:36:00,
2013-04-28 14:41:00,54.5,51.0,29.63,SSE,158,3.6,5.6,88,0.02,,,0.13,WUHU216HW,2013-04-28 18:41:00,
2013-04-28 14:46:00,54.7,51.2,29.63,SSE,158,2.7,5.6,88,0.01,,,0.13,WUHU216HW,2013-04-28 18:46:00,
2013-04-28 14:51:00,55.1,51.8,29.62,SE,135,4.9,4.9,89,0.01,,,0.13,WUHU216HW,2013-04-28 18:51:00,
2013-04-28 14:56:00,55.6,52.1,29.62,SSE,158,6.0,6.0,88,0.01,,,0.13,WUHU216HW,2013-04-28 18:56:00,
2013-04-28 15:01:00,55.8,52.3,29.62,SE,135,3.4,6.0,88,0.01,,,0.13,WUHU216HW,2013-04-28 19:01:00,
2013-04-28 15:06:00,55.8,51.9,29.61,South,180,3.1,6.9,87,0.01,,,0.13,WUHU216HW,2013-04-28 19:06:00,
2013-04-28 15:11:00,55.8,51.7,29.61,West,270,8.3,8.3,86,0.00,,,0.13,WUHU216HW,2013-04-28 19:11:00,
2013-04-28 15:16:00,55.8,51.7,29.61,SW,225,3.1,8.3,86,0.00,,,0.13,WUHU216HW,2013-04-28 19:16:00,
2013-04-28 15:21:00,55.8,51.7,29.61,SSE,158,5.6,8.3,86,0.00,,,0.13,WUHU216HW,2013-04-28 19:21:00,
2013-04-28 15:26:00,56.2,52.0,29.60,ESE,113,4.0,5.6,86,0.00,,,0.13,WUHU216HW,2013-04-28 19:26:00,
2013-04-28 15:31:00,56.7,52.8,29.60,SSE,158,2.9,5.6,87,0.00,,,0.13,WUHU216HW,2013-04-28 19:31:00,
2013-04-28 15:36:00,56.9,52.8,29.59,SE,135,2.9,6.3,86,0.00,,,0.13,WUHU216HW,2013-04-28 19:36:00,
2013-04-28 15:41:00,57.1,52.9,29.59,SSE,158,3.4,6.3,86,0.00,,,0.13,WUHU216HW,2013-04-28 19:41:00,
2013-04-28 15:46:00,57.4,53.6,29.59,SW,225,2.7,6.5,87,0.00,,,0.13,WUHU216HW,2013-04-28 19:46:00,
2013-04-28 15:51:00,58.0,54.1,29.59,SE,135,3.4,6.5,87,0.00,,,0.13,WUHU216HW,2013-04-28 19:51:00,
2013-04-28 15:56:00,58.0,54.1,29.59,WSW,248,4.7,4.7,87,0.00,,,0.13,WUHU216HW,2013-04-28 19:56:00,
2013-04-28 16:01:00,58.3,53.8,29.59,SE,135,4.0,4.9,85,0.00,,,0.13,WUHU216HW,2013-04-28 20:01:00,
2013-04-28 16:06:00,58.7,54.2,29.59,ESE,113,5.4,5.6,85,0.00,,,0.13,WUHU216HW,2013-04-28 20:06:00,
2013-04-28 16:11:00,58.7,53.8,29.59,SSW,203,6.3,6.3,84,0.00,,,0.13,WUHU216HW,2013-04-28 20:11:00,
2013-04-28 16:16:00,58.7,52.6,29.59,South,180,9.6,9.6,80,0.00,,,0.13,WUHU216HW,2013-04-28 20:16:00,
2013-04-28 16:21:00,58.3,52.6,29.59,SSW,203,3.8,9.6,81,0.00,,,0.13,WUHU216HW,2013-04-28 20:21:00,
2013-04-28 16:26:00,58.0,52.2,29.59,SSE,158,3.4,9.6,81,0.00,,,0.13,WUHU216HW,2013-04-28 20:26:00,
2013-04-28 16:31:00,57.6,51.9,29.59,SSE,158,3.1,6.5,81,0.00,,,0.13,WUHU216HW,2013-04-28 20:31:00,
2013-04-28 16:36:00,57.4,51.7,29.59,SSE,158,3.4,6.5,81,0.00,,,0.13,WUHU216HW,2013-04-28 20:36:00,
2013-04-28 16:41:00,56.9,50.8,29.59,SSE,158,2.9,6.3,80,0.00,,,0.13,WUHU216HW,2013-04-28 20:41:00,
2013-04-28 16:46:00,56.2,50.4,29.59,SSE,158,2.7,6.3,81,0.00,,,0.13,WUHU216HW,2013-04-28 20:46:00,
2013-04-28 16:51:00,55.8,50.1,29.59,SE,135,3.1,6.0,81,0.00,,,0.13,WUHU216HW,2013-04-28 20:51:00,
2013-04-28 16:56:00,55.8,50.1,29.59,WSW,248,2.2,3.1,81,0.00,,,0.13,WUHU216HW,2013-04-28 20:56:00,
2013-04-28 17:01:00,55.6,49.9,29.58,SSE,158,2.0,4.3,81,0.00,,,0.13,WUHU216HW,2013-04-28 21:01:00,
2013-04-28 17:06:00,55.8,50.1,29.58,SE,135,3.6,5.8,81,0.00,,,0.13,WUHU216HW,2013-04-28 21:06:00,
2013-04-28 17:11:00,55.8,50.1,29.58,SW,225,3.4,5.8,81,0.00,,,0.13,WUHU216HW,2013-04-28 21:11:00,
2013-04-28 17:16:00,55.8,50.1,29.58,South,180,4.3,4.5,81,0.00,,,0.13,WUHU216HW,2013-04-28 21:16:00,
2013-04-28 17:21:00,55.8,49.7,29.58,SW,225,2.2,5.1,80,0.00,,,0.13,WUHU216HW,2013-04-28 21:21:00,
2013-04-28 17:26:00,55.8,49.7,29.58,SSW,203,4.5,5.1,80,0.00,,,0.13,WUHU216HW,2013-04-28 21:26:00,
2013-04-28 17:31:00,55.8,49.3,29.57,SSE,158,2.7,6.3,79,0.00,,,0.13,WUHU216HW,2013-04-28 21:31:00,
2013-04-28 17:36:00,55.6,49.1,29.57,SE,135,4.0,8.5,79,0.00,,,0.13,WUHU216HW,2013-04-28 21:36:00,
2013-04-28 17:41:00,55.6,49.1,29.57,South,180,2.9,8.5,79,0.00,,,0.13,WUHU216HW,2013-04-28 21:41:00,
2013-04-28 17:46:00,55.4,48.6,29.57,SSE,158,3.1,6.0,78,0.00,,,0.13,WUHU216HW,2013-04-28 21:46:00,
2013-04-28 17:51:00,55.4,48.6,29.57,SE,135,5.4,6.9,78,0.00,,,0.13,WUHU216HW,2013-04-28 21:51:00,
2013-04-28 17:56:00,55.4,48.6,29.57,ESE,113,5.4,6.9,78,0.00,,,0.13,WUHU216HW,2013-04-28 21:56:00,
2013-04-28 18:01:00,55.1,48.7,29.57,South,180,3.1,5.4,79,0.00,,,0.13,WUHU216HW,2013-04-28 22:01:00,
2013-04-28 18:06:00,54.7,48.3,29.56,SW,225,4.3,6.9,79,0.00,,,0.13,WUHU216HW,2013-04-28 22:06:00,
2013-04-28 18:11:00,54.7,48.7,29.56,SW,225,4.7,6.9,80,0.00,,,0.13,WUHU216HW,2013-04-28 22:11:00,
2013-04-28 18:16:00,55.1,49.0,29.56,SSE,158,2.5,5.8,80,0.00,,,0.13,WUHU216HW,2013-04-28 22:16:00,
2013-04-28 18:21:00,55.1,49.0,29.55,SE,135,2.7,5.8,80,0.00,,,0.13,WUHU216HW,2013-04-28 22:21:00,
2013-04-28 18:26:00,55.3,49.1,29.55,SSW,203,2.9,4.0,80,0.00,,,0.13,WUHU216HW,2013-04-28 22:26:00,
2013-04-28 18:31:00,55.4,49.3,29.55,SW,225,4.9,4.9,80,0.00,,,0.13,WUHU216HW,2013-04-28 22:31:00,
2013-04-28 18:36:00,55.4,49.3,29.55,WSW,248,2.5,4.9,80,0.00,,,0.13,WUHU216HW,2013-04-28 22:36:00,
2013-04-28 18:41:00,55.3,48.5,29.55,South,180,3.6,7.2,78,0.00,,,0.13,WUHU216HW,2013-04-28 22:41:00,
2013-04-28 18:46:00,55.1,48.3,29.55,WSW,248,1.8,7.2,78,0.00,,,0.13,WUHU216HW,2013-04-28 22:46:00,
2013-04-28 18:51:00,55.1,48.3,29.55,South,180,2.7,6.3,78,0.00,,,0.13,WUHU216HW,2013-04-28 22:51:00,
2013-04-28 18:56:00,55.1,48.3,29.54,SSW,203,3.1,4.0,78,0.00,,,0.13,WUHU216HW,2013-04-28 22:56:00,
2013-04-28 19:01:00,55.1,48.7,29.54,SE,135,6.9,6.9,79,0.00,,,0.13,WUHU216HW,2013-04-28 23:01:00,
2013-04-28 19:06:00,55.3,48.5,29.54,SE,135,1.6,6.9,78,0.00,,,0.13,WUHU216HW,2013-04-28 23:06:00,
2013-04-28 19:11:00,55.1,48.3,29.54,SE,135,4.3,6.9,78,0.00,,,0.13,WUHU216HW,2013-04-28 23:11:00,
2013-04-28 19:16:00,55.1,48.7,29.55,SE,135,2.7,5.8,79,0.00,,,0.13,WUHU216HW,2013-04-28 23:16:00,
2013-04-28 19:21:00,55.1,48.7,29.55,SW,225,2.7,4.7,79,0.00,,,0.13,WUHU216HW,2013-04-28 23:21:00,
2013-04-28 19:26:00,55.1,48.7,29.55,SE,135,2.9,4.7,79,0.00,,,0.13,WUHU216HW,2013-04-28 23:26:00,
2013-04-28 19:31:00,55.1,48.7,29.55,SSW,203,4.0,5.4,79,0.00,,,0.13,WUHU216HW,2013-04-28 23:31:00,
2013-04-28 19:36:00,55.1,49.0,29.55,SW,225,2.7,5.4,80,0.00,,,0.13,WUHU216HW,2013-04-28 23:36:00,
2013-04-28 19:41:00,54.9,48.2,29.55,SSW,203,3.1,4.7,78,0.00,,,0.13,WUHU216HW,2013-04-28 23:41:00,
2013-04-28 19:46:00,54.9,48.2,29.55,SW,225,2.5,4.7,78,0.00,,,0.13,WUHU216HW,2013-04-28 23:46:00,
2013-04-28 19:51:00,54.7,48.0,29.55,SW,225,4.0,5.8,78,0.00,,,0.13,WUHU216HW,2013-04-28 23:51:00,
2013-04-28 19:56:00,54.7,48.0,29.55,WSW,248,4.0,7.6,78,0.00,,,0.13,WUHU216HW,2013-04-28 23:56:00,
2013-04-28 20:01:00,54.7,48.0,29.56,SW,225,1.8,7.6,78,0.00,,,0.13,WUHU216HW,2013-04-29 00:01:00,
2013-04-28 20:06:00,54.5,47.8,29.56,SW,225,3.4,4.0,78,0.00,,,0.13,WUHU216HW,2013-04-29 00:06:00,
2013-04-28 20:11:00,54.5,48.2,29.56,SW,225,2.9,3.6,79,0.00,,,0.13,WUHU216HW,2013-04-29 00:11:00,
2013-04-28 20:16:00,54.4,47.6,29.56,SSW,203,4.0,4.9,78,0.00,,,0.13,WUHU216HW,2013-04-29 00:16:00,
2013-04-28 20:21:00,54.4,48.0,29.56,SW,225,3.1,4.9,79,0.00,,,0.13,WUHU216HW,2013-04-29 00:21:00,
2013-04-28 20:26:00,54.5,48.2,29.56,SSW,203,1.6,5.1,79,0.00,,,0.13,WUHU216HW,2013-04-29 00:26:00,
2013-04-28 20:31:00,54.5,48.2,29.56,SW,225,2.2,5.1,79,0.00,,,0.13,WUHU216HW,2013-04-29 00:31:00,
2013-04-28 20:36:00,54.7,48.3,29.56,SSW,203,2.5,5.4,79,0.00,,,0.13,WUHU216HW,2013-04-29 00:36:00,
2013-04-28 20:41:00,54.9,48.5,29.56,SE,135,2.7,5.4,79,0.00,,,0.13,WUHU216HW,2013-04-29 00:41:00,
2013-04-28 20:46:00,55.1,48.7,29.56,SSE,158,4.5,5.1,79,0.00,,,0.13,WUHU216HW,2013-04-29 00:46:00,
2013-04-28 20:51:00,55.1,48.3,29.56,SE,135,2.5,4.5,78,0.00,,,0.13,WUHU216HW,2013-04-29 00:51:00,
2013-04-28 20:56:00,55.3,48.8,29.56,SE,135,2.5,4.5,79,0.00,,,0.13,WUHU216HW,2013-04-29 00:56:00,
2013-04-28 21:01:00,55.3,48.8,29.56,SSW,203,2.5,4.5,79,0.00,,,0.13,WUHU216HW,2013-04-29 01:01:00,
2013-04-28 21:06:00,55.3,48.8,29.56,SSE,158,2.0,3.4,79,0.00,,,0.13,WUHU216HW,2013-04-29 01:06:00,
2013-04-28 21:11:00,55.1,48.7,29.56,SSE,158,4.7,4.7,79,0.00,,,0.13,WUHU216HW,2013-04-29 01:11:00,
2013-04-28 21:16:00,55.1,48.3,29.56,SSW,203,3.6,4.7,78,0.00,,,0.13,WUHU216HW,2013-04-29 01:16:00,
2013-04-28 21:21:00,54.9,48.2,29.56,SE,135,1.3,4.7,78,0.00,,,0.13,WUHU216HW,2013-04-29 01:21:00,
2013-04-28 21:26:00,54.4,47.3,29.56,SW,225,2.5,3.4,77,0.00,,,0.13,WUHU216HW,2013-04-29 01:26:00,
2013-04-28 21:31:00,54.2,47.5,29.56,South,180,3.1,3.8,78,0.00,,,0.13,WUHU216HW,2013-04-29 01:31:00,
2013-04-28 21:36:00,54.0,47.0,29.56,South,180,4.0,6.0,77,0.00,,,0.13,WUHU216HW,2013-04-29 01:36:00,
2013-04-28 21:41:00,54.0,47.0,29.56,SE,135,1.8,6.0,77,0.00,,,0.13,WUHU216HW,2013-04-29 01:41:00,
2013-04-28 21:46:00,54.0,47.0,29.56,SE,135,2.9,4.0,77,0.00,,,0.13,WUHU216HW,2013-04-29 01:46:00,
2013-04-28 21:51:00,53.8,46.8,29.56,SE,135,2.5,2.9,77,0.00,,,0.13,WUHU216HW,2013-04-29 01:51:00,
2013-04-28 21:56:00,53.8,46.8,29.56,SSE,158,2.7,2.9,77,0.00,,,0.13,WUHU216HW,2013-04-29 01:56:00,
2013-04-28 22:01:00,53.8,46.8,29.56,ESE,113,2.2,2.7,77,0.00,,,0.13,WUHU216HW,2013-04-29 02:01:00,
2013-04-28 22:06:00,53.8,46.8,29.56,SSE,158,2.5,3.1,77,0.00,,,0.13,WUHU216HW,2013-04-29 02:06:00,
2013-04-28 22:11:00,53.6,46.6,29.56,SW,225,6.9,6.9,77,0.00,,,0.13,WUHU216HW,2013-04-29 02:11:00,
2013-04-28 22:16:00,53.6,46.6,29.56,SE,135,1.8,6.9,77,0.00,,,0.13,WUHU216HW,2013-04-29 02:16:00,
2013-04-28 22:21:00,53.6,46.6,29.56,South,180,2.9,6.9,77,0.00,,,0.13,WUHU216HW,2013-04-29 02:21:00,
2013-04-28 22:26:00,53.6,46.6,29.56,ESE,113,3.4,6.5,77,0.00,,,0.13,WUHU216HW,2013-04-29 02:26:00,
2013-04-28 22:31:00,53.6,46.6,29.56,ESE,113,3.4,6.5,77,0.00,,,0.13,WUHU216HW,2013-04-29 02:31:00,
2013-04-28 22:36:00,53.6,46.6,29.56,SSE,158,3.4,10.1,77,0.00,,,0.13,WUHU216HW,2013-04-29 02:36:00,
2013-04-28 22:41:00,53.6,46.6,29.57,SSW,203,2.7,10.1,77,0.00,,,0.13,WUHU216HW,2013-04-29 02:41:00,
2013-04-28 22:46:00,53.6,46.6,29.57,SSE,158,3.4,4.7,77,0.00,,,0.13,WUHU216HW,2013-04-29 02:46:00,
2013-04-28 22:51:00,53.5,46.4,29.57,SSE,158,1.6,4.7,77,0.00,,,0.13,WUHU216HW,2013-04-29 02:51:00,
2013-04-28 22:56:00,53.3,46.3,29.56,SE,135,4.0,5.4,77,0.00,,,0.13,WUHU216HW,2013-04-29 02:56:00,
2013-04-28 23:01:00,53.3,46.6,29.56,SSE,158,1.6,5.4,78,0.00,,,0.13,WUHU216HW,2013-04-29 03:01:00,
2013-04-28 23:06:00,53.3,46.6,29.56,SSE,158,3.4,6.5,78,0.00,,,0.13,WUHU216HW,2013-04-29 03:06:00,
2013-04-28 23:11:00,53.3,46.6,29.56,South,180,5.4,6.5,78,0.00,,,0.13,WUHU216HW,2013-04-29 03:11:00,
2013-04-28 23:16:00,53.1,46.4,29.56,SSW,203,2.2,5.4,78,0.00,,,0.13,WUHU216HW,2013-04-29 03:16:00,
2013-04-28 23:21:00,52.9,46.3,29.56,SSE,158,2.9,5.4,78,0.00,,,0.13,WUHU216HW,2013-04-29 03:21:00,
2013-04-28 23:26:00,52.9,46.6,29.56,SW,225,4.3,6.9,79,0.00,,,0.13,WUHU216HW,2013-04-29 03:26:00,
2013-04-28 23:31:00,52.9,46.6,29.55,SSW,203,4.0,6.9,79,0.00,,,0.13,WUHU216HW,2013-04-29 03:31:00,
2013-04-28 23:36:00,52.9,46.6,29.56,SSW,203,2.9,5.4,79,0.00,,,0.13,WUHU216HW,2013-04-29 03:36:00,
2013-04-28 23:41:00,52.9,47.0,29.56,SSW,203,5.4,5.4,80,0.00,,,0.13,WUHU216HW,2013-04-29 03:41:00,
2013-04-28 23:46:00,52.7,46.8,29.56,SE,135,4.0,5.4,80,0.00,,,0.13,WUHU216HW,2013-04-29 03:46:00,
2013-04-28 23:51:00,52.7,46.8,29.56,SSW,203,2.2,5.4,80,0.00,,,0.13,WUHU216HW,2013-04-29 03:51:00,
2013-04-28 23:56:00,52.6,46.6,29.56,SSW,203,2.5,4.7,80,0.00,,,0.13,WUHU216HW,2013-04-29 03:56:00,